sensor_id;sensor_type;location;lat;lon;timestamp;P1;durP1;ratioP1;P2;durP2;ratioP2
41759;SDS011;27438;53.396;-6.670;2022-08-18T00:01:41;9.05;;;3.35;;
41759;SDS011;27438;53.396;-6.670;2022-08-18T00:04:09;4.78;;;3.13;;
41759;SDS011;27438;53.396;-6.670;2022-08-18T00:06:36;5.88;;;2.90;;
41759;SDS011;27438;53.396;-6.670;2022-08-18T00:09:04;8.65;;;3.30;;
41759;SDS011;27438;53.396;-6.670;2022-08-18T00:11:44;8.18;;;3.90;;
41759;SDS011;27438;53.396;-6.670;2022-08-18T00:14:13;6.55;;;3.85;;
41759;SDS011;27438;53.396;-6.670;2022-08-18T00:16:41;7.03;;;4.35;;
41759;SDS011;27438;53.396;-6.670;2022-08-18T00:19:08;9.55;;;3.88;;
41759;SDS011;27438;53.396;-6.670;2022-08-18T00:21:34;6.55;;;4.53;;
41759;SDS011;27438;53.396;-6.670;2022-08-18T00:24:00;5.72;;;3.28;;
41759;SDS011;27438;53.396;-6.670;2022-08-18T00:26:26;7.13;;;3.75;;
41759;SDS011;27438;53.396;-6.670;2022-08-18T00:28:51;8.35;;;3.13;;
41759;SDS011;27438;53.396;-6.670;2022-08-18T00:31:17;8.80;;;3.85;;
41759;SDS011;27438;53.396;-6.670;2022-08-18T00:33:43;6.25;;;3.40;;
41759;SDS011;27438;53.396;-6.670;2022-08-18T00:36:09;6.72;;;3.72;;
41759;SDS011;27438;53.396;-6.670;2022-08-18T00:38:36;7.35;;;4.18;;
41759;SDS011;27438;53.396;-6.670;2022-08-18T00:41:03;4.95;;;3.28;;
41759;SDS011;27438;53.396;-6.670;2022-08-18T00:43:40;5.78;;;4.03;;
41759;SDS011;27438;53.396;-6.670;2022-08-18T00:46:17;6.43;;;3.35;;
41759;SDS011;27438;53.396;-6.670;2022-08-18T00:48:51;5.70;;;3.50;;
41759;SDS011;27438;53.396;-6.670;2022-08-18T00:51:28;6.15;;;3.13;;
41759;SDS011;27438;53.396;-6.670;2022-08-18T00:54:05;6.85;;;3.75;;
41759;SDS011;27438;53.396;-6.670;2022-08-18T00:56:54;6.60;;;3.85;;
41759;SDS011;27438;53.396;-6.670;2022-08-18T00:59:22;5.28;;;3.17;;
41759;SDS011;27438;53.396;-6.670;2022-08-18T01:02:08;5.85;;;3.40;;
41759;SDS011;27438;53.396;-6.670;2022-08-18T01:04:41;7.13;;;3.60;;
41759;SDS011;27438;53.396;-6.670;2022-08-18T01:07:53;6.20;;;3.47;;
41759;SDS011;27438;53.396;-6.670;2022-08-18T01:10:04;5.65;;;3.65;;
41759;SDS011;27438;53.396;-6.670;2022-08-18T01:12:31;6.10;;;3.60;;
41759;SDS011;27438;53.396;-6.670;2022-08-18T01:14:57;7.20;;;3.97;;
41759;SDS011;27438;53.396;-6.670;2022-08-18T01:17:23;6.80;;;3.25;;
41759;SDS011;27438;53.396;-6.670;2022-08-18T01:20:09;7.00;;;3.95;;
41759;SDS011;27438;53.396;-6.670;2022-08-18T01:23:00;11.27;;;4.03;;
41759;SDS011;27438;53.396;-6.670;2022-08-18T01:25:29;6.70;;;3.97;;
41759;SDS011;27438;53.396;-6.670;2022-08-18T01:28:14;7.75;;;4.60;;
41759;SDS011;27438;53.396;-6.670;2022-08-18T01:30:46;8.32;;;3.75;;
41759;SDS011;27438;53.396;-6.670;2022-08-18T01:33:26;7.40;;;4.20;;
41759;SDS011;27438;53.396;-6.670;2022-08-18T01:35:56;8.80;;;4.75;;
41759;SDS011;27438;53.396;-6.670;2022-08-18T01:38:24;4.90;;;3.95;;
41759;SDS011;27438;53.396;-6.670;2022-08-18T01:40:50;9.27;;;4.32;;
41759;SDS011;27438;53.396;-6.670;2022-08-18T01:43:18;6.78;;;4.32;;
41759;SDS011;27438;53.396;-6.670;2022-08-18T01:45:44;4.78;;;4.20;;
41759;SDS011;27438;53.396;-6.670;2022-08-18T01:48:11;7.78;;;4.45;;
41759;SDS011;27438;53.396;-6.670;2022-08-18T01:50:37;7.85;;;4.60;;
41759;SDS011;27438;53.396;-6.670;2022-08-18T01:53:05;10.38;;;4.35;;
41759;SDS011;27438;53.396;-6.670;2022-08-18T01:55:35;8.27;;;4.95;;
41759;SDS011;27438;53.396;-6.670;2022-08-18T01:58:03;10.85;;;5.43;;
41759;SDS011;27438;53.396;-6.670;2022-08-18T02:00:31;7.22;;;4.40;;
41759;SDS011;27438;53.396;-6.670;2022-08-18T02:02:57;8.20;;;4.80;;
41759;SDS011;27438;53.396;-6.670;2022-08-18T02:05:35;9.02;;;4.28;;
41759;SDS011;27438;53.396;-6.670;2022-08-18T02:08:12;12.80;;;5.07;;
41759;SDS011;27438;53.396;-6.670;2022-08-18T02:10:39;8.90;;;4.43;;
41759;SDS011;27438;53.396;-6.670;2022-08-18T02:13:06;9.63;;;4.15;;
41759;SDS011;27438;53.396;-6.670;2022-08-18T02:15:33;9.63;;;5.00;;
41759;SDS011;27438;53.396;-6.670;2022-08-18T02:17:59;13.77;;;4.53;;
41759;SDS011;27438;53.396;-6.670;2022-08-18T02:20:25;6.90;;;4.18;;
41759;SDS011;27438;53.396;-6.670;2022-08-18T02:22:51;7.30;;;4.65;;
41759;SDS011;27438;53.396;-6.670;2022-08-18T02:25:17;10.82;;;4.50;;
41759;SDS011;27438;53.396;-6.670;2022-08-18T02:27:43;8.60;;;4.22;;
41759;SDS011;27438;53.396;-6.670;2022-08-18T02:30:11;9.25;;;5.30;;
41759;SDS011;27438;53.396;-6.670;2022-08-18T02:32:39;5.68;;;4.53;;
41759;SDS011;27438;53.396;-6.670;2022-08-18T02:35:05;9.02;;;4.85;;
41759;SDS011;27438;53.396;-6.670;2022-08-18T02:37:32;9.85;;;5.15;;
41759;SDS011;27438;53.396;-6.670;2022-08-18T02:39:58;8.20;;;4.97;;
41759;SDS011;27438;53.396;-6.670;2022-08-18T02:42:23;9.00;;;5.30;;
41759;SDS011;27438;53.396;-6.670;2022-08-18T02:44:49;8.57;;;4.95;;
41759;SDS011;27438;53.396;-6.670;2022-08-18T02:47:18;7.55;;;4.78;;
41759;SDS011;27438;53.396;-6.670;2022-08-18T02:49:44;6.05;;;4.63;;
41759;SDS011;27438;53.396;-6.670;2022-08-18T02:52:10;5.50;;;4.57;;
41759;SDS011;27438;53.396;-6.670;2022-08-18T02:54:36;5.47;;;4.32;;
41759;SDS011;27438;53.396;-6.670;2022-08-18T02:57:09;7.18;;;4.22;;
41759;SDS011;27438;53.396;-6.670;2022-08-18T02:59:36;6.82;;;4.45;;
41759;SDS011;27438;53.396;-6.670;2022-08-18T03:02:04;8.55;;;4.75;;
41759;SDS011;27438;53.396;-6.670;2022-08-18T03:04:31;5.20;;;3.83;;
41759;SDS011;27438;53.396;-6.670;2022-08-18T03:06:59;7.20;;;4.63;;
41759;SDS011;27438;53.396;-6.670;2022-08-18T03:09:28;9.85;;;6.03;;
41759;SDS011;27438;53.396;-6.670;2022-08-18T03:11:54;6.60;;;5.13;;
41759;SDS011;27438;53.396;-6.670;2022-08-18T03:14:21;5.18;;;4.28;;
41759;SDS011;27438;53.396;-6.670;2022-08-18T03:16:47;10.70;;;5.13;;
41759;SDS011;27438;53.396;-6.670;2022-08-18T03:19:14;14.15;;;6.40;;
41759;SDS011;27438;53.396;-6.670;2022-08-18T03:21:41;6.32;;;4.20;;
41759;SDS011;27438;53.396;-6.670;2022-08-18T03:24:08;7.47;;;4.50;;
41759;SDS011;27438;53.396;-6.670;2022-08-18T03:26:37;8.32;;;4.30;;
41759;SDS011;27438;53.396;-6.670;2022-08-18T03:29:08;9.00;;;4.85;;
41759;SDS011;27438;53.396;-6.670;2022-08-18T03:31:34;6.05;;;4.38;;
41759;SDS011;27438;53.396;-6.670;2022-08-18T03:34:02;6.05;;;4.30;;
41759;SDS011;27438;53.396;-6.670;2022-08-18T03:36:29;7.80;;;5.40;;
41759;SDS011;27438;53.396;-6.670;2022-08-18T03:38:57;7.57;;;4.35;;
41759;SDS011;27438;53.396;-6.670;2022-08-18T03:41:26;6.60;;;4.38;;
41759;SDS011;27438;53.396;-6.670;2022-08-18T03:43:53;5.50;;;3.83;;
41759;SDS011;27438;53.396;-6.670;2022-08-18T03:46:19;8.57;;;4.70;;
41759;SDS011;27438;53.396;-6.670;2022-08-18T03:48:46;8.32;;;5.00;;
41759;SDS011;27438;53.396;-6.670;2022-08-18T03:51:17;8.65;;;4.47;;
41759;SDS011;27438;53.396;-6.670;2022-08-18T03:53:49;5.10;;;4.45;;
41759;SDS011;27438;53.396;-6.670;2022-08-18T03:56:17;7.18;;;4.05;;
41759;SDS011;27438;53.396;-6.670;2022-08-18T03:58:48;7.05;;;3.83;;
41759;SDS011;27438;53.396;-6.670;2022-08-18T04:01:17;6.47;;;4.15;;
41759;SDS011;27438;53.396;-6.670;2022-08-18T04:03:45;9.30;;;4.78;;
41759;SDS011;27438;53.396;-6.670;2022-08-18T04:06:16;6.30;;;4.88;;
41759;SDS011;27438;53.396;-6.670;2022-08-18T04:08:43;6.60;;;4.20;;
41759;SDS011;27438;53.396;-6.670;2022-08-18T04:11:10;10.10;;;4.43;;
41759;SDS011;27438;53.396;-6.670;2022-08-18T04:13:37;5.72;;;4.78;;
41759;SDS011;27438;53.396;-6.670;2022-08-18T04:16:03;6.78;;;4.40;;
41759;SDS011;27438;53.396;-6.670;2022-08-18T04:18:29;8.35;;;4.72;;
41759;SDS011;27438;53.396;-6.670;2022-08-18T04:20:59;8.55;;;4.88;;
41759;SDS011;27438;53.396;-6.670;2022-08-18T04:23:32;6.90;;;4.53;;
41759;SDS011;27438;53.396;-6.670;2022-08-18T04:26:02;8.02;;;4.45;;
41759;SDS011;27438;53.396;-6.670;2022-08-18T04:28:29;8.70;;;4.78;;
41759;SDS011;27438;53.396;-6.670;2022-08-18T04:30:56;8.30;;;4.35;;
41759;SDS011;27438;53.396;-6.670;2022-08-18T04:33:24;9.40;;;4.45;;
41759;SDS011;27438;53.396;-6.670;2022-08-18T04:35:51;8.77;;;4.72;;
41759;SDS011;27438;53.396;-6.670;2022-08-18T04:38:18;9.05;;;5.25;;
41759;SDS011;27438;53.396;-6.670;2022-08-18T04:40:44;16.60;;;5.38;;
41759;SDS011;27438;53.396;-6.670;2022-08-18T04:43:11;10.10;;;5.68;;
41759;SDS011;27438;53.396;-6.670;2022-08-18T04:45:43;11.40;;;6.10;;
41759;SDS011;27438;53.396;-6.670;2022-08-18T04:48:09;9.98;;;5.85;;
41759;SDS011;27438;53.396;-6.670;2022-08-18T04:50:36;7.85;;;5.18;;
41759;SDS011;27438;53.396;-6.670;2022-08-18T04:53:02;9.63;;;4.45;;
41759;SDS011;27438;53.396;-6.670;2022-08-18T04:55:47;7.03;;;4.70;;
41759;SDS011;27438;53.396;-6.670;2022-08-18T04:58:16;7.70;;;5.75;;
41759;SDS011;27438;53.396;-6.670;2022-08-18T05:00:43;9.30;;;4.82;;
41759;SDS011;27438;53.396;-6.670;2022-08-18T05:03:10;10.20;;;4.68;;
41759;SDS011;27438;53.396;-6.670;2022-08-18T05:05:36;10.15;;;4.70;;
41759;SDS011;27438;53.396;-6.670;2022-08-18T05:08:01;5.15;;;3.92;;
41759;SDS011;27438;53.396;-6.670;2022-08-18T05:10:28;7.78;;;5.47;;
41759;SDS011;27438;53.396;-6.670;2022-08-18T05:12:54;11.05;;;5.07;;
41759;SDS011;27438;53.396;-6.670;2022-08-18T05:15:20;7.38;;;4.25;;
41759;SDS011;27438;53.396;-6.670;2022-08-18T05:17:46;6.57;;;4.43;;
41759;SDS011;27438;53.396;-6.670;2022-08-18T05:20:12;7.18;;;4.82;;
41759;SDS011;27438;53.396;-6.670;2022-08-18T05:22:38;5.53;;;4.20;;
41759;SDS011;27438;53.396;-6.670;2022-08-18T05:25:09;6.88;;;3.90;;
41759;SDS011;27438;53.396;-6.670;2022-08-18T05:27:37;6.10;;;4.72;;
41759;SDS011;27438;53.396;-6.670;2022-08-18T05:30:07;6.77;;;4.07;;
41759;SDS011;27438;53.396;-6.670;2022-08-18T05:32:37;5.55;;;3.85;;
41759;SDS011;27438;53.396;-6.670;2022-08-18T05:35:06;5.82;;;4.32;;
41759;SDS011;27438;53.396;-6.670;2022-08-18T05:40:22;4.72;;;3.08;;
41759;SDS011;27438;53.396;-6.670;2022-08-18T05:42:49;8.20;;;3.78;;
41759;SDS011;27438;53.396;-6.670;2022-08-18T05:45:16;7.47;;;3.42;;
41759;SDS011;27438;53.396;-6.670;2022-08-18T05:47:42;7.95;;;3.60;;
41759;SDS011;27438;53.396;-6.670;2022-08-18T05:50:18;4.32;;;3.08;;
41759;SDS011;27438;53.396;-6.670;2022-08-18T05:52:53;4.78;;;3.67;;
41759;SDS011;27438;53.396;-6.670;2022-08-18T05:55:26;5.93;;;3.67;;
41759;SDS011;27438;53.396;-6.670;2022-08-18T05:58:38;8.48;;;4.18;;
41759;SDS011;27438;53.396;-6.670;2022-08-18T06:04:16;4.65;;;3.50;;
41759;SDS011;27438;53.396;-6.670;2022-08-18T06:06:47;6.95;;;3.78;;
41759;SDS011;27438;53.396;-6.670;2022-08-18T06:11:46;4.40;;;3.55;;
41759;SDS011;27438;53.396;-6.670;2022-08-18T06:14:12;5.43;;;3.10;;
41759;SDS011;27438;53.396;-6.670;2022-08-18T06:22:12;5.82;;;3.97;;
41759;SDS011;27438;53.396;-6.670;2022-08-18T06:27:54;6.70;;;3.33;;
41759;SDS011;27438;53.396;-6.670;2022-08-18T06:35:58;5.78;;;3.53;;
41759;SDS011;27438;53.396;-6.670;2022-08-18T06:38:50;5.28;;;3.72;;
41759;SDS011;27438;53.396;-6.670;2022-08-18T06:41:33;6.15;;;4.07;;
41759;SDS011;27438;53.396;-6.670;2022-08-18T06:44:12;4.72;;;3.47;;
41759;SDS011;27438;53.396;-6.670;2022-08-18T06:49:22;3.53;;;2.60;;
41759;SDS011;27438;53.396;-6.670;2022-08-18T06:52:17;3.55;;;2.60;;
41759;SDS011;27438;53.396;-6.670;2022-08-18T06:54:43;3.78;;;2.53;;
41759;SDS011;27438;53.396;-6.670;2022-08-18T06:57:21;4.00;;;2.58;;
41759;SDS011;27438;53.396;-6.670;2022-08-18T06:59:57;4.38;;;2.53;;
41759;SDS011;27438;53.396;-6.670;2022-08-18T07:02:35;4.28;;;2.17;;
41759;SDS011;27438;53.396;-6.670;2022-08-18T07:05:17;2.78;;;2.15;;
41759;SDS011;27438;53.396;-6.670;2022-08-18T07:07:44;3.85;;;1.92;;
41759;SDS011;27438;53.396;-6.670;2022-08-18T07:10:27;2.03;;;1.60;;
41759;SDS011;27438;53.396;-6.670;2022-08-18T07:15:36;2.08;;;1.65;;
41759;SDS011;27438;53.396;-6.670;2022-08-18T07:18:05;2.17;;;1.80;;
41759;SDS011;27438;53.396;-6.670;2022-08-18T07:20:43;2.67;;;1.13;;
41759;SDS011;27438;53.396;-6.670;2022-08-18T07:23:31;2.70;;;1.50;;
41759;SDS011;27438;53.396;-6.670;2022-08-18T07:26:06;2.05;;;1.20;;
41759;SDS011;27438;53.396;-6.670;2022-08-18T07:28:40;2.83;;;1.35;;
41759;SDS011;27438;53.396;-6.670;2022-08-18T07:31:13;1.23;;;1.13;;
41759;SDS011;27438;53.396;-6.670;2022-08-18T07:36:32;0.98;;;0.80;;
41759;SDS011;27438;53.396;-6.670;2022-08-18T07:39:09;1.92;;;0.93;;
41759;SDS011;27438;53.396;-6.670;2022-08-18T07:41:54;1.30;;;1.15;;
41759;SDS011;27438;53.396;-6.670;2022-08-18T07:44:42;3.90;;;1.92;;
41759;SDS011;27438;53.396;-6.670;2022-08-18T07:47:17;1.67;;;1.40;;
41759;SDS011;27438;53.396;-6.670;2022-08-18T07:49:47;2.85;;;1.20;;
41759;SDS011;27438;53.396;-6.670;2022-08-18T08:02:46;1.27;;;1.08;;
41759;SDS011;27438;53.396;-6.670;2022-08-18T08:05:16;1.25;;;1.02;;
41759;SDS011;27438;53.396;-6.670;2022-08-18T08:11:08;0.60;;;0.60;;
41759;SDS011;27438;53.396;-6.670;2022-08-18T08:13:40;3.13;;;0.90;;
41759;SDS011;27438;53.396;-6.670;2022-08-18T08:21:39;0.70;;;0.60;;
41759;SDS011;27438;53.396;-6.670;2022-08-18T08:24:31;0.77;;;0.77;;
41759;SDS011;27438;53.396;-6.670;2022-08-18T08:33:19;0.80;;;0.60;;
41759;SDS011;27438;53.396;-6.670;2022-08-18T08:35:39;0.77;;;0.70;;
41759;SDS011;27438;53.396;-6.670;2022-08-18T08:38:13;0.60;;;0.55;;
41759;SDS011;27438;53.396;-6.670;2022-08-18T08:40:52;0.40;;;0.40;;
41759;SDS011;27438;53.396;-6.670;2022-08-18T08:43:46;1.42;;;0.50;;
41759;SDS011;27438;53.396;-6.670;2022-08-18T08:46:26;0.85;;;0.60;;
41759;SDS011;27438;53.396;-6.670;2022-08-18T08:51:37;0.57;;;0.50;;
41759;SDS011;27438;53.396;-6.670;2022-08-18T08:54:20;0.57;;;0.40;;
41759;SDS011;27438;53.396;-6.670;2022-08-18T08:56:50;1.05;;;0.60;;
41759;SDS011;27438;53.396;-6.670;2022-08-18T08:59:20;0.60;;;0.60;;
41759;SDS011;27438;53.396;-6.670;2022-08-18T09:15:44;0.50;;;0.40;;
41759;SDS011;27438;53.396;-6.670;2022-08-18T09:18:39;0.75;;;0.50;;
41759;SDS011;27438;53.396;-6.670;2022-08-18T09:29:47;0.30;;;0.30;;
41759;SDS011;27438;53.396;-6.670;2022-08-18T09:37:46;0.80;;;0.40;;
41759;SDS011;27438;53.396;-6.670;2022-08-18T09:40:51;0.38;;;0.30;;
41759;SDS011;27438;53.396;-6.670;2022-08-18T09:43:58;1.35;;;0.32;;
41759;SDS011;27438;53.396;-6.670;2022-08-18T09:51:50;0.75;;;0.32;;
41759;SDS011;27438;53.396;-6.670;2022-08-18T09:54:19;1.00;;;0.32;;
41759;SDS011;27438;53.396;-6.670;2022-08-18T10:02:05;1.77;;;0.50;;
41759;SDS011;27438;53.396;-6.670;2022-08-18T10:04:41;1.67;;;0.40;;
41759;SDS011;27438;53.396;-6.670;2022-08-18T10:31:28;0.35;;;0.30;;
41759;SDS011;27438;53.396;-6.670;2022-08-18T10:33:57;1.55;;;0.25;;
41759;SDS011;27438;53.396;-6.670;2022-08-18T10:39:14;13.10;;;8.23;;
41759;SDS011;27438;53.396;-6.670;2022-08-18T10:41:50;3.67;;;0.70;;
41759;SDS011;27438;53.396;-6.670;2022-08-18T10:44:24;2.85;;;0.40;;
41759;SDS011;27438;53.396;-6.670;2022-08-18T10:46:51;0.43;;;0.40;;
41759;SDS011;27438;53.396;-6.670;2022-08-18T10:49:21;0.73;;;0.32;;
41759;SDS011;27438;53.396;-6.670;2022-08-18T10:55:11;2.28;;;0.57;;
41759;SDS011;27438;53.396;-6.670;2022-08-18T11:00:21;2.88;;;1.15;;
41759;SDS011;27438;53.396;-6.670;2022-08-18T11:03:03;1.30;;;0.40;;
41759;SDS011;27438;53.396;-6.670;2022-08-18T11:05:39;2.28;;;0.50;;
41759;SDS011;27438;53.396;-6.670;2022-08-18T11:08:09;0.60;;;0.45;;
41759;SDS011;27438;53.396;-6.670;2022-08-18T11:10:43;2.80;;;1.95;;
41759;SDS011;27438;53.396;-6.670;2022-08-18T11:13:20;2.20;;;0.60;;
41759;SDS011;27438;53.396;-6.670;2022-08-18T11:16:02;1.10;;;0.50;;
41759;SDS011;27438;53.396;-6.670;2022-08-18T11:18:46;0.73;;;0.45;;
41759;SDS011;27438;53.396;-6.670;2022-08-18T11:24:02;0.43;;;0.43;;
41759;SDS011;27438;53.396;-6.670;2022-08-18T11:26:33;0.63;;;0.40;;
41759;SDS011;27438;53.396;-6.670;2022-08-18T11:29:16;3.22;;;0.40;;
41759;SDS011;27438;53.396;-6.670;2022-08-18T11:31:41;0.75;;;0.50;;
41759;SDS011;27438;53.396;-6.670;2022-08-18T11:34:12;0.63;;;0.38;;
41759;SDS011;27438;53.396;-6.670;2022-08-18T11:36:41;0.35;;;0.30;;
41759;SDS011;27438;53.396;-6.670;2022-08-18T11:39:08;1.75;;;0.90;;
41759;SDS011;27438;53.396;-6.670;2022-08-18T11:41:34;0.40;;;0.40;;
41759;SDS011;27438;53.396;-6.670;2022-08-18T11:44:02;1.55;;;0.43;;
41759;SDS011;27438;53.396;-6.670;2022-08-18T11:46:39;0.98;;;0.50;;
41759;SDS011;27438;53.396;-6.670;2022-08-18T11:49:16;0.47;;;0.30;;
41759;SDS011;27438;53.396;-6.670;2022-08-18T11:55:00;0.40;;;0.30;;
41759;SDS011;27438;53.396;-6.670;2022-08-18T11:57:29;1.33;;;0.30;;
41759;SDS011;27438;53.396;-6.670;2022-08-18T12:05:45;0.20;;;0.20;;
41759;SDS011;27438;53.396;-6.670;2022-08-18T12:08:24;0.65;;;0.55;;
41759;SDS011;27438;53.396;-6.670;2022-08-18T12:11:05;0.30;;;0.30;;
41759;SDS011;27438;53.396;-6.670;2022-08-18T12:13:41;0.40;;;0.35;;
41759;SDS011;27438;53.396;-6.670;2022-08-18T12:16:11;0.40;;;0.40;;
41759;SDS011;27438;53.396;-6.670;2022-08-18T12:18:54;0.40;;;0.38;;
41759;SDS011;27438;53.396;-6.670;2022-08-18T12:21:20;0.63;;;0.60;;
41759;SDS011;27438;53.396;-6.670;2022-08-18T12:23:46;0.50;;;0.50;;
41759;SDS011;27438;53.396;-6.670;2022-08-18T12:26:13;2.17;;;0.60;;
41759;SDS011;27438;53.396;-6.670;2022-08-18T12:28:39;2.08;;;0.65;;
41759;SDS011;27438;53.396;-6.670;2022-08-18T12:31:05;3.08;;;2.35;;
41759;SDS011;27438;53.396;-6.670;2022-08-18T12:33:33;0.52;;;0.50;;
41759;SDS011;27438;53.396;-6.670;2022-08-18T12:36:00;2.30;;;0.50;;
41759;SDS011;27438;53.396;-6.670;2022-08-18T12:38:27;1.38;;;0.40;;
41759;SDS011;27438;53.396;-6.670;2022-08-18T12:40:53;0.32;;;0.32;;
41759;SDS011;27438;53.396;-6.670;2022-08-18T12:43:19;1.13;;;0.50;;
41759;SDS011;27438;53.396;-6.670;2022-08-18T12:45:45;1.00;;;0.47;;
41759;SDS011;27438;53.396;-6.670;2022-08-18T12:48:11;0.40;;;0.40;;
41759;SDS011;27438;53.396;-6.670;2022-08-18T12:50:37;0.70;;;0.50;;
41759;SDS011;27438;53.396;-6.670;2022-08-18T12:53:03;1.38;;;1.27;;
41759;SDS011;27438;53.396;-6.670;2022-08-18T12:55:42;0.88;;;0.40;;
41759;SDS011;27438;53.396;-6.670;2022-08-18T12:58:08;0.57;;;0.40;;
41759;SDS011;27438;53.396;-6.670;2022-08-18T13:00:34;1.80;;;0.55;;
41759;SDS011;27438;53.396;-6.670;2022-08-18T13:03:00;3.08;;;0.50;;
41759;SDS011;27438;53.396;-6.670;2022-08-18T13:05:26;0.47;;;0.45;;
41759;SDS011;27438;53.396;-6.670;2022-08-18T13:07:53;0.38;;;0.38;;
41759;SDS011;27438;53.396;-6.670;2022-08-18T13:10:22;0.57;;;0.45;;
41759;SDS011;27438;53.396;-6.670;2022-08-18T13:12:48;0.50;;;0.50;;
41759;SDS011;27438;53.396;-6.670;2022-08-18T13:15:14;0.52;;;0.43;;
41759;SDS011;27438;53.396;-6.670;2022-08-18T13:17:40;0.65;;;0.60;;
41759;SDS011;27438;53.396;-6.670;2022-08-18T13:20:07;0.45;;;0.45;;
41759;SDS011;27438;53.396;-6.670;2022-08-18T13:22:38;0.63;;;0.50;;
41759;SDS011;27438;53.396;-6.670;2022-08-18T13:25:07;0.50;;;0.50;;
41759;SDS011;27438;53.396;-6.670;2022-08-18T13:27:36;0.52;;;0.50;;
41759;SDS011;27438;53.396;-6.670;2022-08-18T13:30:06;0.68;;;0.47;;
41759;SDS011;27438;53.396;-6.670;2022-08-18T13:32:35;0.60;;;0.60;;
41759;SDS011;27438;53.396;-6.670;2022-08-18T13:35:01;2.67;;;0.70;;
41759;SDS011;27438;53.396;-6.670;2022-08-18T13:37:28;0.65;;;0.47;;
41759;SDS011;27438;53.396;-6.670;2022-08-18T13:39:56;1.83;;;0.55;;
41759;SDS011;27438;53.396;-6.670;2022-08-18T13:42:23;0.40;;;0.40;;
41759;SDS011;27438;53.396;-6.670;2022-08-18T13:44:49;0.70;;;0.47;;
41759;SDS011;27438;53.396;-6.670;2022-08-18T13:47:16;0.70;;;0.70;;
41759;SDS011;27438;53.396;-6.670;2022-08-18T13:49:42;0.50;;;0.50;;
41759;SDS011;27438;53.396;-6.670;2022-08-18T13:52:07;2.95;;;0.60;;
41759;SDS011;27438;53.396;-6.670;2022-08-18T13:54:36;0.93;;;0.60;;
41759;SDS011;27438;53.396;-6.670;2022-08-18T13:57:02;1.60;;;0.50;;
41759;SDS011;27438;53.396;-6.670;2022-08-18T13:59:29;0.50;;;0.50;;
41759;SDS011;27438;53.396;-6.670;2022-08-18T14:02:01;0.43;;;0.40;;
41759;SDS011;27438;53.396;-6.670;2022-08-18T14:04:29;1.13;;;0.50;;
41759;SDS011;27438;53.396;-6.670;2022-08-18T14:06:55;0.75;;;0.60;;
41759;SDS011;27438;53.396;-6.670;2022-08-18T14:09:21;0.38;;;0.38;;
41759;SDS011;27438;53.396;-6.670;2022-08-18T14:11:47;1.75;;;0.60;;
41759;SDS011;27438;53.396;-6.670;2022-08-18T14:14:13;3.42;;;1.10;;
41759;SDS011;27438;53.396;-6.670;2022-08-18T14:16:39;2.85;;;0.95;;
41759;SDS011;27438;53.396;-6.670;2022-08-18T14:19:05;3.70;;;0.70;;
41759;SDS011;27438;53.396;-6.670;2022-08-18T14:21:50;0.70;;;0.50;;
41759;SDS011;27438;53.396;-6.670;2022-08-18T14:24:37;0.68;;;0.57;;
41759;SDS011;27438;53.396;-6.670;2022-08-18T14:27:27;1.33;;;0.47;;
41759;SDS011;27438;53.396;-6.670;2022-08-18T14:29:59;0.93;;;0.90;;
41759;SDS011;27438;53.396;-6.670;2022-08-18T14:32:28;0.68;;;0.50;;
41759;SDS011;27438;53.396;-6.670;2022-08-18T14:34:57;1.75;;;0.93;;
41759;SDS011;27438;53.396;-6.670;2022-08-18T14:39:51;0.63;;;0.40;;
41759;SDS011;27438;53.396;-6.670;2022-08-18T14:42:17;1.88;;;0.40;;
41759;SDS011;27438;53.396;-6.670;2022-08-18T14:44:45;0.40;;;0.40;;
41759;SDS011;27438;53.396;-6.670;2022-08-18T14:47:11;0.60;;;0.60;;
41759;SDS011;27438;53.396;-6.670;2022-08-18T14:49:37;0.77;;;0.77;;
41759;SDS011;27438;53.396;-6.670;2022-08-18T14:52:04;1.20;;;0.70;;
41759;SDS011;27438;53.396;-6.670;2022-08-18T14:54:30;0.88;;;0.50;;
41759;SDS011;27438;53.396;-6.670;2022-08-18T14:56:57;0.50;;;0.45;;
41759;SDS011;27438;53.396;-6.670;2022-08-18T14:59:26;0.55;;;0.55;;
41759;SDS011;27438;53.396;-6.670;2022-08-18T15:01:53;1.80;;;0.50;;
41759;SDS011;27438;53.396;-6.670;2022-08-18T15:04:19;0.50;;;0.45;;
41759;SDS011;27438;53.396;-6.670;2022-08-18T15:06:46;0.85;;;0.70;;
41759;SDS011;27438;53.396;-6.670;2022-08-18T15:09:13;0.77;;;0.45;;
41759;SDS011;27438;53.396;-6.670;2022-08-18T15:11:38;0.50;;;0.50;;
41759;SDS011;27438;53.396;-6.670;2022-08-18T15:14:04;0.65;;;0.50;;
41759;SDS011;27438;53.396;-6.670;2022-08-18T15:16:30;1.33;;;0.50;;
41759;SDS011;27438;53.396;-6.670;2022-08-18T15:18:59;0.70;;;0.50;;
41759;SDS011;27438;53.396;-6.670;2022-08-18T15:21:26;0.50;;;0.47;;
41759;SDS011;27438;53.396;-6.670;2022-08-18T15:24:11;0.75;;;0.50;;
41759;SDS011;27438;53.396;-6.670;2022-08-18T15:26:56;0.80;;;0.60;;
41759;SDS011;27438;53.396;-6.670;2022-08-18T15:29:23;0.40;;;0.40;;
41759;SDS011;27438;53.396;-6.670;2022-08-18T15:31:50;0.60;;;0.60;;
41759;SDS011;27438;53.396;-6.670;2022-08-18T15:34:16;0.50;;;0.50;;
41759;SDS011;27438;53.396;-6.670;2022-08-18T15:36:42;1.35;;;0.80;;
41759;SDS011;27438;53.396;-6.670;2022-08-18T15:39:08;0.55;;;0.55;;
41759;SDS011;27438;53.396;-6.670;2022-08-18T15:41:39;0.52;;;0.43;;
41759;SDS011;27438;53.396;-6.670;2022-08-18T15:44:12;1.75;;;0.60;;
41759;SDS011;27438;53.396;-6.670;2022-08-18T15:46:39;1.20;;;0.60;;
41759;SDS011;27438;53.396;-6.670;2022-08-18T15:49:05;0.98;;;0.88;;
41759;SDS011;27438;53.396;-6.670;2022-08-18T15:51:35;0.75;;;0.52;;
41759;SDS011;27438;53.396;-6.670;2022-08-18T15:56:29;0.88;;;0.60;;
41759;SDS011;27438;53.396;-6.670;2022-08-18T15:58:56;2.30;;;0.68;;
41759;SDS011;27438;53.396;-6.670;2022-08-18T16:01:23;0.98;;;0.60;;
41759;SDS011;27438;53.396;-6.670;2022-08-18T16:03:50;1.40;;;0.80;;
41759;SDS011;27438;53.396;-6.670;2022-08-18T16:06:19;0.93;;;0.82;;
41759;SDS011;27438;53.396;-6.670;2022-08-18T16:08:48;0.50;;;0.50;;
41759;SDS011;27438;53.396;-6.670;2022-08-18T16:11:15;2.30;;;0.63;;
41759;SDS011;27438;53.396;-6.670;2022-08-18T16:13:43;1.25;;;0.60;;
41759;SDS011;27438;53.396;-6.670;2022-08-18T16:16:10;3.25;;;0.85;;
41759;SDS011;27438;53.396;-6.670;2022-08-18T16:18:42;0.80;;;0.60;;
41759;SDS011;27438;53.396;-6.670;2022-08-18T16:21:11;0.77;;;0.60;;
41759;SDS011;27438;53.396;-6.670;2022-08-18T16:23:43;1.17;;;0.85;;
41759;SDS011;27438;53.396;-6.670;2022-08-18T16:26:11;2.13;;;0.70;;
41759;SDS011;27438;53.396;-6.670;2022-08-18T16:28:39;1.30;;;0.77;;
41759;SDS011;27438;53.396;-6.670;2022-08-18T16:31:06;0.95;;;0.60;;
41759;SDS011;27438;53.396;-6.670;2022-08-18T16:33:33;1.83;;;0.70;;
41759;SDS011;27438;53.396;-6.670;2022-08-18T16:36:06;0.70;;;0.70;;
41759;SDS011;27438;53.396;-6.670;2022-08-18T16:38:34;1.98;;;0.57;;
41759;SDS011;27438;53.396;-6.670;2022-08-18T16:41:05;1.02;;;0.80;;
41759;SDS011;27438;53.396;-6.670;2022-08-18T16:43:33;1.02;;;0.73;;
41759;SDS011;27438;53.396;-6.670;2022-08-18T16:46:00;2.10;;;0.73;;
41759;SDS011;27438;53.396;-6.670;2022-08-18T16:48:27;2.53;;;0.80;;
41759;SDS011;27438;53.396;-6.670;2022-08-18T16:50:53;1.40;;;0.98;;
41759;SDS011;27438;53.396;-6.670;2022-08-18T16:53:19;2.22;;;0.93;;
41759;SDS011;27438;53.396;-6.670;2022-08-18T16:55:45;2.03;;;0.80;;
41759;SDS011;27438;53.396;-6.670;2022-08-18T16:58:11;4.18;;;1.48;;
41759;SDS011;27438;53.396;-6.670;2022-08-18T17:00:56;4.93;;;1.02;;
41759;SDS011;27438;53.396;-6.670;2022-08-18T17:03:40;6.45;;;1.55;;
41759;SDS011;27438;53.396;-6.670;2022-08-18T17:06:25;3.75;;;1.85;;
41759;SDS011;27438;53.396;-6.670;2022-08-18T17:08:52;3.20;;;1.17;;
41759;SDS011;27438;53.396;-6.670;2022-08-18T17:11:19;2.92;;;1.10;;
41759;SDS011;27438;53.396;-6.670;2022-08-18T17:13:46;3.03;;;1.10;;
41759;SDS011;27438;53.396;-6.670;2022-08-18T17:16:13;2.88;;;1.60;;
41759;SDS011;27438;53.396;-6.670;2022-08-18T17:18:40;7.45;;;2.53;;
41759;SDS011;27438;53.396;-6.670;2022-08-18T17:21:07;4.63;;;1.40;;